sensor_id;sensor_type;location;lat;lon;timestamp;P1;durP1;ratioP1;P2;durP2;ratioP2
40745;SDS011;26454;51.164;4.488;2022-09-09T00:00:47;33.55;;;31.48;;
40745;SDS011;26454;51.164;4.488;2022-09-09T00:03:17;35.65;;;33.55;;
40745;SDS011;26454;51.164;4.488;2022-09-09T00:05:55;35.88;;;33.58;;
40745;SDS011;26454;51.164;4.488;2022-09-09T00:08:32;34.38;;;31.98;;
40745;SDS011;26454;51.164;4.488;2022-09-09T00:11:03;41.60;;;39.28;;
40745;SDS011;26454;51.164;4.488;2022-09-09T00:13:33;37.65;;;35.35;;
40745;SDS011;26454;51.164;4.488;2022-09-09T00:16:04;35.40;;;33.22;;
40745;SDS011;26454;51.164;4.488;2022-09-09T00:21:12;39.70;;;37.53;;
40745;SDS011;26454;51.164;4.488;2022-09-09T00:23:47;41.75;;;39.50;;
40745;SDS011;26454;51.164;4.488;2022-09-09T00:26:18;37.92;;;35.50;;
40745;SDS011;26454;51.164;4.488;2022-09-09T00:28:48;47.60;;;45.00;;
40745;SDS011;26454;51.164;4.488;2022-09-09T00:31:18;38.33;;;36.15;;
40745;SDS011;26454;51.164;4.488;2022-09-09T00:36:14;36.22;;;33.97;;
40745;SDS011;26454;51.164;4.488;2022-09-09T00:38:43;38.38;;;36.10;;
40745;SDS011;26454;51.164;4.488;2022-09-09T00:46:50;34.35;;;32.28;;
40745;SDS011;26454;51.164;4.488;2022-09-09T00:49:33;33.38;;;31.50;;
40745;SDS011;26454;51.164;4.488;2022-09-09T00:54:57;33.75;;;32.00;;
40745;SDS011;26454;51.164;4.488;2022-09-09T00:57:29;33.90;;;31.95;;
40745;SDS011;26454;51.164;4.488;2022-09-09T01:02:47;35.97;;;34.10;;
40745;SDS011;26454;51.164;4.488;2022-09-09T01:05:20;32.05;;;29.83;;
40745;SDS011;26454;51.164;4.488;2022-09-09T01:07:48;34.15;;;31.65;;
40745;SDS011;26454;51.164;4.488;2022-09-09T01:10:27;35.03;;;33.13;;
40745;SDS011;26454;51.164;4.488;2022-09-09T01:12:56;32.85;;;30.90;;
40745;SDS011;26454;51.164;4.488;2022-09-09T01:15:26;35.35;;;32.72;;
40745;SDS011;26454;51.164;4.488;2022-09-09T01:17:58;31.95;;;30.23;;
40745;SDS011;26454;51.164;4.488;2022-09-09T01:20:28;35.88;;;33.58;;
40745;SDS011;26454;51.164;4.488;2022-09-09T01:23:04;38.13;;;35.90;;
40745;SDS011;26454;51.164;4.488;2022-09-09T01:28:16;39.38;;;36.88;;
40745;SDS011;26454;51.164;4.488;2022-09-09T01:30:45;44.65;;;42.00;;
40745;SDS011;26454;51.164;4.488;2022-09-09T01:33:21;39.47;;;37.42;;
40745;SDS011;26454;51.164;4.488;2022-09-09T01:35:51;39.65;;;37.35;;
40745;SDS011;26454;51.164;4.488;2022-09-09T01:38:20;37.05;;;35.05;;
40745;SDS011;26454;51.164;4.488;2022-09-09T01:40:47;33.13;;;31.13;;
40745;SDS011;26454;51.164;4.488;2022-09-09T01:43:14;41.33;;;38.85;;
40745;SDS011;26454;51.164;4.488;2022-09-09T01:45:42;33.47;;;31.38;;
40745;SDS011;26454;51.164;4.488;2022-09-09T01:48:12;37.22;;;35.05;;
40745;SDS011;26454;51.164;4.488;2022-09-09T01:50:42;35.45;;;32.88;;
40745;SDS011;26454;51.164;4.488;2022-09-09T01:53:10;40.03;;;37.63;;
40745;SDS011;26454;51.164;4.488;2022-09-09T01:55:38;45.80;;;43.28;;
40745;SDS011;26454;51.164;4.488;2022-09-09T02:00:43;40.45;;;37.63;;
40745;SDS011;26454;51.164;4.488;2022-09-09T02:03:21;42.53;;;40.05;;
40745;SDS011;26454;51.164;4.488;2022-09-09T02:05:55;36.78;;;34.75;;
40745;SDS011;26454;51.164;4.488;2022-09-09T02:08:29;43.30;;;40.85;;
40745;SDS011;26454;51.164;4.488;2022-09-09T02:11:03;39.35;;;37.45;;
40745;SDS011;26454;51.164;4.488;2022-09-09T02:13:32;41.63;;;39.10;;
40745;SDS011;26454;51.164;4.488;2022-09-09T02:16:03;40.97;;;38.60;;
40745;SDS011;26454;51.164;4.488;2022-09-09T02:18:34;41.58;;;39.40;;
40745;SDS011;26454;51.164;4.488;2022-09-09T02:21:03;38.53;;;36.40;;
40745;SDS011;26454;51.164;4.488;2022-09-09T02:23:29;39.40;;;37.08;;
40745;SDS011;26454;51.164;4.488;2022-09-09T02:25:56;40.78;;;38.70;;
40745;SDS011;26454;51.164;4.488;2022-09-09T02:28:30;35.33;;;33.33;;
40745;SDS011;26454;51.164;4.488;2022-09-09T02:30:57;41.58;;;39.22;;
40745;SDS011;26454;51.164;4.488;2022-09-09T02:33:24;38.83;;;36.78;;
40745;SDS011;26454;51.164;4.488;2022-09-09T02:35:52;42.67;;;40.40;;
40745;SDS011;26454;51.164;4.488;2022-09-09T02:38:26;41.35;;;38.97;;
40745;SDS011;26454;51.164;4.488;2022-09-09T02:40:54;39.35;;;37.20;;
40745;SDS011;26454;51.164;4.488;2022-09-09T02:43:23;35.83;;;33.87;;
40745;SDS011;26454;51.164;4.488;2022-09-09T02:48:39;36.38;;;33.92;;
40745;SDS011;26454;51.164;4.488;2022-09-09T02:51:15;27.10;;;25.60;;
40745;SDS011;26454;51.164;4.488;2022-09-09T02:53:55;34.83;;;32.70;;
40745;SDS011;26454;51.164;4.488;2022-09-09T02:58:50;31.85;;;30.05;;
40745;SDS011;26454;51.164;4.488;2022-09-09T03:01:16;38.75;;;35.95;;
40745;SDS011;26454;51.164;4.488;2022-09-09T03:03:42;32.38;;;30.27;;
40745;SDS011;26454;51.164;4.488;2022-09-09T03:06:09;36.40;;;34.15;;
40745;SDS011;26454;51.164;4.488;2022-09-09T03:08:37;35.55;;;32.92;;
40745;SDS011;26454;51.164;4.488;2022-09-09T03:11:04;38.42;;;35.97;;
40745;SDS011;26454;51.164;4.488;2022-09-09T03:13:31;35.28;;;33.28;;
40745;SDS011;26454;51.164;4.488;2022-09-09T03:15:58;31.85;;;29.60;;
40745;SDS011;26454;51.164;4.488;2022-09-09T03:18:24;34.20;;;31.92;;
40745;SDS011;26454;51.164;4.488;2022-09-09T03:20:51;33.83;;;31.05;;
40745;SDS011;26454;51.164;4.488;2022-09-09T03:23:19;35.90;;;33.80;;
40745;SDS011;26454;51.164;4.488;2022-09-09T03:25:49;32.38;;;30.38;;
40745;SDS011;26454;51.164;4.488;2022-09-09T03:28:17;35.47;;;32.95;;
40745;SDS011;26454;51.164;4.488;2022-09-09T03:30:43;29.17;;;26.88;;
40745;SDS011;26454;51.164;4.488;2022-09-09T03:33:09;30.83;;;28.33;;
40745;SDS011;26454;51.164;4.488;2022-09-09T03:35:44;41.65;;;39.00;;
40745;SDS011;26454;51.164;4.488;2022-09-09T03:38:13;37.35;;;34.42;;
40745;SDS011;26454;51.164;4.488;2022-09-09T03:40:39;38.38;;;36.13;;
40745;SDS011;26454;51.164;4.488;2022-09-09T03:43:07;43.00;;;40.63;;
40745;SDS011;26454;51.164;4.488;2022-09-09T03:45:34;34.65;;;31.92;;
40745;SDS011;26454;51.164;4.488;2022-09-09T03:50:31;40.78;;;37.88;;
40745;SDS011;26454;51.164;4.488;2022-09-09T03:52:57;36.97;;;34.28;;
40745;SDS011;26454;51.164;4.488;2022-09-09T03:55:23;41.17;;;38.33;;
40745;SDS011;26454;51.164;4.488;2022-09-09T03:57:49;40.50;;;37.15;;
40745;SDS011;26454;51.164;4.488;2022-09-09T04:00:15;40.50;;;37.70;;
40745;SDS011;26454;51.164;4.488;2022-09-09T04:02:41;45.08;;;41.92;;
40745;SDS011;26454;51.164;4.488;2022-09-09T04:05:08;39.22;;;36.53;;
40745;SDS011;26454;51.164;4.488;2022-09-09T04:07:37;40.55;;;37.58;;
40745;SDS011;26454;51.164;4.488;2022-09-09T04:10:06;46.85;;;43.75;;
40745;SDS011;26454;51.164;4.488;2022-09-09T04:12:35;43.20;;;40.42;;
40745;SDS011;26454;51.164;4.488;2022-09-09T04:15:01;41.40;;;38.50;;
40745;SDS011;26454;51.164;4.488;2022-09-09T04:17:27;42.88;;;40.28;;
40745;SDS011;26454;51.164;4.488;2022-09-09T04:19:53;37.38;;;34.67;;
40745;SDS011;26454;51.164;4.488;2022-09-09T04:22:19;33.20;;;30.75;;
40745;SDS011;26454;51.164;4.488;2022-09-09T04:24:47;39.78;;;37.42;;
40745;SDS011;26454;51.164;4.488;2022-09-09T04:27:13;41.10;;;38.33;;
40745;SDS011;26454;51.164;4.488;2022-09-09T04:29:39;31.23;;;28.92;;
40745;SDS011;26454;51.164;4.488;2022-09-09T04:32:11;34.67;;;31.73;;
40745;SDS011;26454;51.164;4.488;2022-09-09T04:34:37;39.20;;;36.38;;
40745;SDS011;26454;51.164;4.488;2022-09-09T04:37:05;50.70;;;47.35;;
40745;SDS011;26454;51.164;4.488;2022-09-09T04:39:31;51.88;;;48.53;;
40745;SDS011;26454;51.164;4.488;2022-09-09T04:42:01;50.65;;;46.88;;
40745;SDS011;26454;51.164;4.488;2022-09-09T04:44:28;41.75;;;38.30;;
40745;SDS011;26454;51.164;4.488;2022-09-09T04:46:55;43.95;;;40.67;;
40745;SDS011;26454;51.164;4.488;2022-09-09T04:49:21;48.85;;;45.65;;
40745;SDS011;26454;51.164;4.488;2022-09-09T04:51:50;56.75;;;53.28;;
40745;SDS011;26454;51.164;4.488;2022-09-09T04:54:19;55.53;;;52.13;;
40745;SDS011;26454;51.164;4.488;2022-09-09T04:56:46;57.08;;;53.83;;
40745;SDS011;26454;51.164;4.488;2022-09-09T04:59:12;48.22;;;44.90;;
40745;SDS011;26454;51.164;4.488;2022-09-09T05:01:39;36.50;;;33.70;;
40745;SDS011;26454;51.164;4.488;2022-09-09T05:04:08;30.47;;;28.07;;
40745;SDS011;26454;51.164;4.488;2022-09-09T05:06:34;30.15;;;27.38;;
40745;SDS011;26454;51.164;4.488;2022-09-09T05:09:01;31.50;;;28.60;;
40745;SDS011;26454;51.164;4.488;2022-09-09T05:11:28;37.22;;;34.75;;
40745;SDS011;26454;51.164;4.488;2022-09-09T05:13:57;42.42;;;39.55;;
40745;SDS011;26454;51.164;4.488;2022-09-09T05:16:24;45.30;;;42.67;;
40745;SDS011;26454;51.164;4.488;2022-09-09T05:18:52;46.55;;;43.75;;
40745;SDS011;26454;51.164;4.488;2022-09-09T05:21:21;43.05;;;40.08;;
40745;SDS011;26454;51.164;4.488;2022-09-09T05:23:47;39.17;;;36.83;;
40745;SDS011;26454;51.164;4.488;2022-09-09T05:26:15;36.53;;;34.10;;
40745;SDS011;26454;51.164;4.488;2022-09-09T05:28:41;29.65;;;27.35;;
40745;SDS011;26454;51.164;4.488;2022-09-09T05:31:09;23.52;;;21.90;;
40745;SDS011;26454;51.164;4.488;2022-09-09T05:33:37;27.65;;;24.92;;
40745;SDS011;26454;51.164;4.488;2022-09-09T05:36:06;35.03;;;31.52;;
40745;SDS011;26454;51.164;4.488;2022-09-09T05:38:33;33.65;;;30.77;;
40745;SDS011;26454;51.164;4.488;2022-09-09T05:41:01;28.63;;;26.50;;
40745;SDS011;26454;51.164;4.488;2022-09-09T05:43:27;24.27;;;22.23;;
40745;SDS011;26454;51.164;4.488;2022-09-09T05:46:08;22.98;;;21.13;;
40745;SDS011;26454;51.164;4.488;2022-09-09T05:48:35;22.25;;;17.45;;
40745;SDS011;26454;51.164;4.488;2022-09-09T05:51:02;16.80;;;15.27;;
40745;SDS011;26454;51.164;4.488;2022-09-09T05:53:29;22.20;;;18.50;;
40745;SDS011;26454;51.164;4.488;2022-09-09T05:56:00;21.17;;;19.20;;
40745;SDS011;26454;51.164;4.488;2022-09-09T05:58:28;21.77;;;19.50;;
40745;SDS011;26454;51.164;4.488;2022-09-09T06:01:00;20.70;;;18.85;;
40745;SDS011;26454;51.164;4.488;2022-09-09T06:03:26;21.30;;;19.55;;
40745;SDS011;26454;51.164;4.488;2022-09-09T06:06:01;20.63;;;18.55;;
40745;SDS011;26454;51.164;4.488;2022-09-09T06:08:30;21.05;;;19.35;;
40745;SDS011;26454;51.164;4.488;2022-09-09T06:11:00;20.53;;;18.70;;
40745;SDS011;26454;51.164;4.488;2022-09-09T06:13:27;23.13;;;21.30;;
40745;SDS011;26454;51.164;4.488;2022-09-09T06:15:54;27.42;;;25.08;;
40745;SDS011;26454;51.164;4.488;2022-09-09T06:18:20;21.45;;;19.30;;
40745;SDS011;26454;51.164;4.488;2022-09-09T06:20:54;21.85;;;19.80;;
40745;SDS011;26454;51.164;4.488;2022-09-09T06:23:21;20.55;;;18.83;;
40745;SDS011;26454;51.164;4.488;2022-09-09T06:25:51;22.08;;;19.98;;
40745;SDS011;26454;51.164;4.488;2022-09-09T06:28:20;22.80;;;20.17;;
40745;SDS011;26454;51.164;4.488;2022-09-09T06:30:56;21.73;;;20.00;;
40745;SDS011;26454;51.164;4.488;2022-09-09T06:33:23;22.20;;;19.92;;
40745;SDS011;26454;51.164;4.488;2022-09-09T06:38:19;23.25;;;15.13;;
40745;SDS011;26454;51.164;4.488;2022-09-09T06:40:57;16.15;;;14.05;;
40745;SDS011;26454;51.164;4.488;2022-09-09T06:43:23;14.48;;;8.70;;
40745;SDS011;26454;51.164;4.488;2022-09-09T06:45:53;15.07;;;9.20;;
40745;SDS011;26454;51.164;4.488;2022-09-09T06:48:20;15.30;;;7.97;;
40745;SDS011;26454;51.164;4.488;2022-09-09T06:50:46;11.90;;;9.43;;
40745;SDS011;26454;51.164;4.488;2022-09-09T06:53:16;14.23;;;8.85;;
40745;SDS011;26454;51.164;4.488;2022-09-09T06:55:45;14.55;;;6.63;;
40745;SDS011;26454;51.164;4.488;2022-09-09T06:58:13;12.63;;;7.80;;
40745;SDS011;26454;51.164;4.488;2022-09-09T07:00:39;15.75;;;5.82;;
40745;SDS011;26454;51.164;4.488;2022-09-09T07:03:05;15.35;;;6.68;;
40745;SDS011;26454;51.164;4.488;2022-09-09T07:05:31;11.55;;;8.82;;
40745;SDS011;26454;51.164;4.488;2022-09-09T07:08:00;10.23;;;6.20;;
40745;SDS011;26454;51.164;4.488;2022-09-09T07:10:32;12.02;;;8.02;;
40745;SDS011;26454;51.164;4.488;2022-09-09T07:13:00;9.25;;;8.15;;
40745;SDS011;26454;51.164;4.488;2022-09-09T07:15:30;13.98;;;8.35;;
40745;SDS011;26454;51.164;4.488;2022-09-09T07:18:00;13.95;;;12.00;;
40745;SDS011;26454;51.164;4.488;2022-09-09T07:20:28;16.88;;;14.52;;
40745;SDS011;26454;51.164;4.488;2022-09-09T07:22:54;15.18;;;12.70;;
40745;SDS011;26454;51.164;4.488;2022-09-09T07:25:21;16.75;;;15.30;;
40745;SDS011;26454;51.164;4.488;2022-09-09T07:27:53;16.50;;;14.00;;
40745;SDS011;26454;51.164;4.488;2022-09-09T07:30:20;15.18;;;10.88;;
40745;SDS011;26454;51.164;4.488;2022-09-09T07:32:51;15.35;;;14.20;;
40745;SDS011;26454;51.164;4.488;2022-09-09T07:35:22;17.65;;;15.30;;
40745;SDS011;26454;51.164;4.488;2022-09-09T07:37:48;15.52;;;12.75;;
40745;SDS011;26454;51.164;4.488;2022-09-09T07:40:14;18.10;;;11.82;;
40745;SDS011;26454;51.164;4.488;2022-09-09T07:42:47;12.18;;;11.10;;
40745;SDS011;26454;51.164;4.488;2022-09-09T07:45:21;12.68;;;9.90;;
40745;SDS011;26454;51.164;4.488;2022-09-09T07:47:50;19.85;;;10.80;;
40745;SDS011;26454;51.164;4.488;2022-09-09T07:50:17;14.07;;;8.65;;
40745;SDS011;26454;51.164;4.488;2022-09-09T07:52:43;10.65;;;8.85;;
40745;SDS011;26454;51.164;4.488;2022-09-09T07:55:10;10.45;;;7.28;;
40745;SDS011;26454;51.164;4.488;2022-09-09T07:57:43;14.77;;;7.60;;
40745;SDS011;26454;51.164;4.488;2022-09-09T08:00:09;14.07;;;6.00;;
40745;SDS011;26454;51.164;4.488;2022-09-09T08:02:36;11.20;;;8.55;;
40745;SDS011;26454;51.164;4.488;2022-09-09T08:05:02;10.80;;;9.68;;
40745;SDS011;26454;51.164;4.488;2022-09-09T08:07:32;12.50;;;11.23;;
40745;SDS011;26454;51.164;4.488;2022-09-09T08:09:58;11.20;;;9.98;;
40745;SDS011;26454;51.164;4.488;2022-09-09T08:12:24;12.55;;;10.90;;
40745;SDS011;26454;51.164;4.488;2022-09-09T08:14:52;14.63;;;13.20;;
40745;SDS011;26454;51.164;4.488;2022-09-09T08:17:19;14.27;;;10.82;;
40745;SDS011;26454;51.164;4.488;2022-09-09T08:19:54;13.50;;;8.52;;
40745;SDS011;26454;51.164;4.488;2022-09-09T08:22:20;11.95;;;8.02;;
40745;SDS011;26454;51.164;4.488;2022-09-09T08:24:46;10.18;;;6.03;;
40745;SDS011;26454;51.164;4.488;2022-09-09T08:27:13;15.48;;;7.80;;
40745;SDS011;26454;51.164;4.488;2022-09-09T08:29:40;12.57;;;7.35;;
40745;SDS011;26454;51.164;4.488;2022-09-09T08:32:10;9.85;;;6.15;;
40745;SDS011;26454;51.164;4.488;2022-09-09T08:34:36;12.10;;;6.97;;
40745;SDS011;26454;51.164;4.488;2022-09-09T08:37:07;13.88;;;6.68;;
40745;SDS011;26454;51.164;4.488;2022-09-09T08:39:34;12.80;;;5.85;;
40745;SDS011;26454;51.164;4.488;2022-09-09T08:48:00;14.52;;;6.88;;
40745;SDS011;26454;51.164;4.488;2022-09-09T08:50:29;15.52;;;6.95;;
40745;SDS011;26454;51.164;4.488;2022-09-09T08:53:04;12.23;;;6.90;;
40745;SDS011;26454;51.164;4.488;2022-09-09T08:58:21;10.77;;;8.77;;
40745;SDS011;26454;51.164;4.488;2022-09-09T09:00:54;13.60;;;9.02;;
40745;SDS011;26454;51.164;4.488;2022-09-09T09:06:26;14.70;;;9.35;;
40745;SDS011;26454;51.164;4.488;2022-09-09T09:08:57;10.80;;;6.88;;
40745;SDS011;26454;51.164;4.488;2022-09-09T09:11:24;9.30;;;6.75;;
40745;SDS011;26454;51.164;4.488;2022-09-09T09:13:54;15.63;;;8.82;;
40745;SDS011;26454;51.164;4.488;2022-09-09T09:16:24;14.23;;;9.00;;
40745;SDS011;26454;51.164;4.488;2022-09-09T09:18:52;14.63;;;13.27;;
40745;SDS011;26454;51.164;4.488;2022-09-09T09:21:25;17.27;;;13.60;;
40745;SDS011;26454;51.164;4.488;2022-09-09T09:23:57;12.52;;;11.40;;
40745;SDS011;26454;51.164;4.488;2022-09-09T09:26:24;16.73;;;14.98;;
40745;SDS011;26454;51.164;4.488;2022-09-09T09:28:53;13.88;;;12.68;;
40745;SDS011;26454;51.164;4.488;2022-09-09T09:31:22;14.15;;;12.57;;
40745;SDS011;26454;51.164;4.488;2022-09-09T09:33:53;17.02;;;15.68;;
40745;SDS011;26454;51.164;4.488;2022-09-09T09:36:23;15.52;;;12.52;;
40745;SDS011;26454;51.164;4.488;2022-09-09T09:38:58;14.95;;;13.45;;
40745;SDS011;26454;51.164;4.488;2022-09-09T09:41:29;16.60;;;12.02;;
40745;SDS011;26454;51.164;4.488;2022-09-09T09:43:56;16.48;;;15.10;;
40745;SDS011;26454;51.164;4.488;2022-09-09T09:46:24;14.50;;;13.13;;
40745;SDS011;26454;51.164;4.488;2022-09-09T09:49:02;16.77;;;11.90;;
40745;SDS011;26454;51.164;4.488;2022-09-09T09:51:31;19.85;;;17.90;;
40745;SDS011;26454;51.164;4.488;2022-09-09T09:54:18;13.63;;;12.60;;
40745;SDS011;26454;51.164;4.488;2022-09-09T09:56:44;17.77;;;16.20;;
40745;SDS011;26454;51.164;4.488;2022-09-09T10:04:44;18.80;;;17.42;;
40745;SDS011;26454;51.164;4.488;2022-09-09T10:07:12;14.88;;;13.63;;
40745;SDS011;26454;51.164;4.488;2022-09-09T10:09:39;11.35;;;10.30;;
40745;SDS011;26454;51.164;4.488;2022-09-09T10:14:57;15.45;;;13.95;;
40745;SDS011;26454;51.164;4.488;2022-09-09T10:20:15;16.40;;;12.07;;
40745;SDS011;26454;51.164;4.488;2022-09-09T10:22:46;15.48;;;9.48;;
40745;SDS011;26454;51.164;4.488;2022-09-09T10:25:30;10.75;;;8.70;;
40745;SDS011;26454;51.164;4.488;2022-09-09T10:30:55;7.82;;;6.03;;
40745;SDS011;26454;51.164;4.488;2022-09-09T10:33:32;14.10;;;5.57;;
40745;SDS011;26454;51.164;4.488;2022-09-09T10:36:03;15.48;;;9.00;;
40745;SDS011;26454;51.164;4.488;2022-09-09T10:38:38;9.48;;;5.07;;
40745;SDS011;26454;51.164;4.488;2022-09-09T10:41:09;8.73;;;6.70;;
40745;SDS011;26454;51.164;4.488;2022-09-09T10:43:39;13.02;;;7.43;;
40745;SDS011;26454;51.164;4.488;2022-09-09T10:46:28;13.15;;;11.57;;
40745;SDS011;26454;51.164;4.488;2022-09-09T10:49:06;12.10;;;10.77;;
40745;SDS011;26454;51.164;4.488;2022-09-09T10:51:42;16.48;;;12.65;;
40745;SDS011;26454;51.164;4.488;2022-09-09T10:54:14;17.23;;;12.13;;
40745;SDS011;26454;51.164;4.488;2022-09-09T10:56:49;12.80;;;8.70;;
40745;SDS011;26454;51.164;4.488;2022-09-09T10:59:23;7.88;;;6.60;;
40745;SDS011;26454;51.164;4.488;2022-09-09T11:01:57;9.05;;;6.65;;
40745;SDS011;26454;51.164;4.488;2022-09-09T11:04:28;5.97;;;5.38;;
40745;SDS011;26454;51.164;4.488;2022-09-09T11:06:57;10.50;;;5.10;;
40745;SDS011;26454;51.164;4.488;2022-09-09T11:09:31;9.73;;;5.38;;
40745;SDS011;26454;51.164;4.488;2022-09-09T11:12:02;5.70;;;4.72;;
40745;SDS011;26454;51.164;4.488;2022-09-09T11:14:31;6.05;;;3.42;;
40745;SDS011;26454;51.164;4.488;2022-09-09T11:17:08;7.43;;;4.28;;
40745;SDS011;26454;51.164;4.488;2022-09-09T11:19:41;12.98;;;7.22;;
40745;SDS011;26454;51.164;4.488;2022-09-09T11:22:21;7.53;;;4.78;;
40745;SDS011;26454;51.164;4.488;2022-09-09T11:24:51;7.10;;;6.40;;
40745;SDS011;26454;51.164;4.488;2022-09-09T11:27:27;9.85;;;5.35;;
40745;SDS011;26454;51.164;4.488;2022-09-09T11:30:02;8.23;;;4.70;;
40745;SDS011;26454;51.164;4.488;2022-09-09T11:32:39;6.38;;;4.97;;
40745;SDS011;26454;51.164;4.488;2022-09-09T11:35:24;9.23;;;7.68;;
40745;SDS011;26454;51.164;4.488;2022-09-09T11:38:01;8.10;;;3.58;;
40745;SDS011;26454;51.164;4.488;2022-09-09T11:40:34;5.65;;;4.03;;
40745;SDS011;26454;51.164;4.488;2022-09-09T11:43:02;8.25;;;3.67;;
40745;SDS011;26454;51.164;4.488;2022-09-09T11:45:29;5.22;;;3.40;;
40745;SDS011;26454;51.164;4.488;2022-09-09T11:48:01;7.00;;;4.85;;
40745;SDS011;26454;51.164;4.488;2022-09-09T11:50:31;8.90;;;4.65;;
40745;SDS011;26454;51.164;4.488;2022-09-09T11:55:59;6.38;;;5.13;;
40745;SDS011;26454;51.164;4.488;2022-09-09T11:58:33;8.18;;;7.32;;
40745;SDS011;26454;51.164;4.488;2022-09-09T12:03:54;7.43;;;6.93;;
40745;SDS011;26454;51.164;4.488;2022-09-09T12:08:51;15.13;;;14.07;;
40745;SDS011;26454;51.164;4.488;2022-09-09T12:11:23;7.85;;;7.15;;
40745;SDS011;26454;51.164;4.488;2022-09-09T12:13:58;11.20;;;10.23;;
40745;SDS011;26454;51.164;4.488;2022-09-09T12:16:28;8.93;;;7.97;;
40745;SDS011;26454;51.164;4.488;2022-09-09T12:21:26;7.53;;;6.90;;
40745;SDS011;26454;51.164;4.488;2022-09-09T12:23:59;7.32;;;6.35;;
40745;SDS011;26454;51.164;4.488;2022-09-09T12:29:02;11.55;;;10.50;;
40745;SDS011;26454;51.164;4.488;2022-09-09T12:31:35;8.98;;;7.57;;
40745;SDS011;26454;51.164;4.488;2022-09-09T12:34:10;8.27;;;7.45;;
40745;SDS011;26454;51.164;4.488;2022-09-09T12:36:37;7.82;;;7.30;;
40745;SDS011;26454;51.164;4.488;2022-09-09T12:39:10;8.07;;;7.53;;
40745;SDS011;26454;51.164;4.488;2022-09-09T12:41:37;7.55;;;5.53;;
40745;SDS011;26454;51.164;4.488;2022-09-09T12:44:08;11.15;;;10.43;;
40745;SDS011;26454;51.164;4.488;2022-09-09T12:46:36;9.02;;;8.23;;
40745;SDS011;26454;51.164;4.488;2022-09-09T12:49:04;9.60;;;6.45;;
40745;SDS011;26454;51.164;4.488;2022-09-09T12:51:32;8.38;;;7.03;;
40745;SDS011;26454;51.164;4.488;2022-09-09T12:54:00;9.27;;;5.70;;
40745;SDS011;26454;51.164;4.488;2022-09-09T12:56:28;12.60;;;11.90;;
40745;SDS011;26454;51.164;4.488;2022-09-09T12:58:56;8.60;;;5.63;;
40745;SDS011;26454;51.164;4.488;2022-09-09T13:01:27;6.22;;;5.57;;
40745;SDS011;26454;51.164;4.488;2022-09-09T13:03:55;6.82;;;5.55;;
40745;SDS011;26454;51.164;4.488;2022-09-09T13:06:25;10.15;;;7.88;;
40745;SDS011;26454;51.164;4.488;2022-09-09T13:08:58;8.13;;;7.50;;
40745;SDS011;26454;51.164;4.488;2022-09-09T13:14:04;7.85;;;7.13;;
40745;SDS011;26454;51.164;4.488;2022-09-09T13:16:32;11.48;;;10.75;;
40745;SDS011;26454;51.164;4.488;2022-09-09T13:19:00;10.52;;;9.63;;
40745;SDS011;26454;51.164;4.488;2022-09-09T13:21:31;12.25;;;11.13;;
40745;SDS011;26454;51.164;4.488;2022-09-09T13:24:00;13.18;;;12.40;;
40745;SDS011;26454;51.164;4.488;2022-09-09T13:26:28;11.18;;;10.38;;
40745;SDS011;26454;51.164;4.488;2022-09-09T13:31:45;8.48;;;7.63;;
40745;SDS011;26454;51.164;4.488;2022-09-09T13:36:39;8.23;;;7.65;;
40745;SDS011;26454;51.164;4.488;2022-09-09T13:39:13;9.45;;;8.13;;
40745;SDS011;26454;51.164;4.488;2022-09-09T13:41:42;5.35;;;3.92;;
40745;SDS011;26454;51.164;4.488;2022-09-09T13:44:26;6.20;;;4.72;;
40745;SDS011;26454;51.164;4.488;2022-09-09T13:47:04;7.15;;;4.25;;
40745;SDS011;26454;51.164;4.488;2022-09-09T13:49:42;5.38;;;5.07;;
40745;SDS011;26454;51.164;4.488;2022-09-09T13:52:12;7.40;;;6.75;;
40745;SDS011;26454;51.164;4.488;2022-09-09T13:54:39;7.18;;;4.88;;
40745;SDS011;26454;51.164;4.488;2022-09-09T13:57:14;8.18;;;7.50;;
40745;SDS011;26454;51.164;4.488;2022-09-09T13:59:42;4.18;;;3.88;;
40745;SDS011;26454;51.164;4.488;2022-09-09T14:02:08;5.75;;;5.40;;
40745;SDS011;26454;51.164;4.488;2022-09-09T14:04:35;8.40;;;8.00;;
40745;SDS011;26454;51.164;4.488;2022-09-09T14:07:04;6.90;;;6.40;;
40745;SDS011;26454;51.164;4.488;2022-09-09T14:09:30;9.93;;;9.05;;
40745;SDS011;26454;51.164;4.488;2022-09-09T14:11:56;10.85;;;9.85;;
40745;SDS011;26454;51.164;4.488;2022-09-09T14:14:22;10.10;;;9.27;;
40745;SDS011;26454;51.164;4.488;2022-09-09T14:16:50;8.77;;;7.78;;
40745;SDS011;26454;51.164;4.488;2022-09-09T14:19:18;7.95;;;6.82;;
40745;SDS011;26454;51.164;4.488;2022-09-09T14:21:46;7.88;;;7.32;;
40745;SDS011;26454;51.164;4.488;2022-09-09T14:24:12;10.38;;;8.00;;
40745;SDS011;26454;51.164;4.488;2022-09-09T14:26:42;10.70;;;9.93;;
40745;SDS011;26454;51.164;4.488;2022-09-09T14:29:08;8.40;;;7.78;;
40745;SDS011;26454;51.164;4.488;2022-09-09T14:31:34;8.85;;;8.05;;
40745;SDS011;26454;51.164;4.488;2022-09-09T14:34:00;9.20;;;8.38;;
40745;SDS011;26454;51.164;4.488;2022-09-09T14:36:27;9.93;;;9.02;;
40745;SDS011;26454;51.164;4.488;2022-09-09T14:38:56;9.52;;;8.95;;
40745;SDS011;26454;51.164;4.488;2022-09-09T14:41:23;8.13;;;7.50;;
40745;SDS011;26454;51.164;4.488;2022-09-09T14:43:50;7.03;;;6.45;;
40745;SDS011;26454;51.164;4.488;2022-09-09T14:46:17;5.40;;;4.82;;
40745;SDS011;26454;51.164;4.488;2022-09-09T14:48:43;4.15;;;3.22;;
40745;SDS011;26454;51.164;4.488;2022-09-09T14:51:11;3.75;;;2.75;;
40745;SDS011;26454;51.164;4.488;2022-09-09T14:53:38;3.45;;;3.15;;
40745;SDS011;26454;51.164;4.488;2022-09-09T14:56:06;4.22;;;3.83;;
40745;SDS011;26454;51.164;4.488;2022-09-09T14:58:33;3.42;;;3.22;;
40745;SDS011;26454;51.164;4.488;2022-09-09T15:01:02;3.55;;;3.25;;
40745;SDS011;26454;51.164;4.488;2022-09-09T15:03:29;3.03;;;2.75;;
40745;SDS011;26454;51.164;4.488;2022-09-09T15:05:55;5.60;;;5.20;;
40745;SDS011;26454;51.164;4.488;2022-09-09T15:08:24;5.63;;;5.10;;
40745;SDS011;26454;51.164;4.488;2022-09-09T15:10:58;5.50;;;5.13;;
40745;SDS011;26454;51.164;4.488;2022-09-09T15:13:27;11.65;;;11.05;;
40745;SDS011;26454;51.164;4.488;2022-09-09T15:16:02;9.70;;;9.13;;
40745;SDS011;26454;51.164;4.488;2022-09-09T15:18:29;11.00;;;10.20;;
40745;SDS011;26454;51.164;4.488;2022-09-09T15:20:55;12.05;;;11.45;;
40745;SDS011;26454;51.164;4.488;2022-09-09T15:23:21;11.25;;;10.65;;
40745;SDS011;26454;51.164;4.488;2022-09-09T15:25:50;9.02;;;8.30;;
40745;SDS011;26454;51.164;4.488;2022-09-09T15:28:21;11.15;;;10.55;;
40745;SDS011;26454;51.164;4.488;2022-09-09T15:30:48;10.90;;;10.00;;
40745;SDS011;26454;51.164;4.488;2022-09-09T15:33:14;10.60;;;9.80;;
40745;SDS011;26454;51.164;4.488;2022-09-09T15:35:40;7.50;;;7.00;;
40745;SDS011;26454;51.164;4.488;2022-09-09T15:38:06;11.30;;;10.30;;
40745;SDS011;26454;51.164;4.488;2022-09-09T15:40:33;5.72;;;5.28;;
40745;SDS011;26454;51.164;4.488;2022-09-09T15:42:59;4.38;;;3.83;;
40745;SDS011;26454;51.164;4.488;2022-09-09T15:45:26;5.35;;;4.97;;
40745;SDS011;26454;51.164;4.488;2022-09-09T15:47:53;5.55;;;5.25;;
40745;SDS011;26454;51.164;4.488;2022-09-09T15:50:19;10.15;;;9.40;;
40745;SDS011;26454;51.164;4.488;2022-09-09T15:52:46;9.98;;;9.48;;
40745;SDS011;26454;51.164;4.488;2022-09-09T15:55:12;8.55;;;7.95;;
40745;SDS011;26454;51.164;4.488;2022-09-09T15:57:38;6.68;;;6.05;;
40745;SDS011;26454;51.164;4.488;2022-09-09T16:00:05;3.33;;;3.13;;
40745;SDS011;26454;51.164;4.488;2022-09-09T16:02:33;4.22;;;3.72;;